sensor_id;sensor_type;location;lat;lon;timestamp;temperature;humidity
14995;DHT22;7593;49.006;8.372;2023-03-03T00:00:29;2.80;99.90
14995;DHT22;7593;49.006;8.372;2023-03-03T00:03:01;2.80;99.90
14995;DHT22;7593;49.006;8.372;2023-03-03T00:05:31;2.80;99.90
14995;DHT22;7593;49.006;8.372;2023-03-03T00:07:58;2.80;99.90
14995;DHT22;7593;49.006;8.372;2023-03-03T00:10:25;2.70;99.90
14995;DHT22;7593;49.006;8.372;2023-03-03T00:12:52;2.70;99.90
14995;DHT22;7593;49.006;8.372;2023-03-03T00:15:20;2.70;99.90
14995;DHT22;7593;49.006;8.372;2023-03-03T00:17:48;2.70;99.90
14995;DHT22;7593;49.006;8.372;2023-03-03T00:20:30;2.70;99.90
14995;DHT22;7593;49.006;8.372;2023-03-03T00:23:07;2.70;99.90
14995;DHT22;7593;49.006;8.372;2023-03-03T00:25:43;2.70;99.90
14995;DHT22;7593;49.006;8.372;2023-03-03T00:28:21;2.70;99.90
14995;DHT22;7593;49.006;8.372;2023-03-03T00:30:50;2.70;99.90
14995;DHT22;7593;49.006;8.372;2023-03-03T00:33:29;2.70;99.90
14995;DHT22;7593;49.006;8.372;2023-03-03T00:36:09;2.60;99.90
14995;DHT22;7593;49.006;8.372;2023-03-03T00:38:48;2.70;99.90
14995;DHT22;7593;49.006;8.372;2023-03-03T00:41:19;2.60;99.90
14995;DHT22;7593;49.006;8.372;2023-03-03T00:43:48;2.60;99.90
14995;DHT22;7593;49.006;8.372;2023-03-03T00:46:17;2.60;99.90
14995;DHT22;7593;49.006;8.372;2023-03-03T00:48:44;2.60;99.90
14995;DHT22;7593;49.006;8.372;2023-03-03T00:51:25;2.60;99.90
14995;DHT22;7593;49.006;8.372;2023-03-03T00:53:52;2.50;99.90
14995;DHT22;7593;49.006;8.372;2023-03-03T00:56:20;2.50;99.90
14995;DHT22;7593;49.006;8.372;2023-03-03T00:58:46;2.50;99.90
14995;DHT22;7593;49.006;8.372;2023-03-03T01:01:13;2.40;99.90
14995;DHT22;7593;49.006;8.372;2023-03-03T01:03:40;2.40;99.90
14995;DHT22;7593;49.006;8.372;2023-03-03T01:06:07;2.40;99.90
14995;DHT22;7593;49.006;8.372;2023-03-03T01:08:35;2.40;99.90
14995;DHT22;7593;49.006;8.372;2023-03-03T01:11:06;2.30;99.90
14995;DHT22;7593;49.006;8.372;2023-03-03T01:13:36;2.30;99.90
14995;DHT22;7593;49.006;8.372;2023-03-03T01:16:03;2.30;99.90
14995;DHT22;7593;49.006;8.372;2023-03-03T01:18:31;2.20;99.90
14995;DHT22;7593;49.006;8.372;2023-03-03T01:20:58;2.20;99.90
14995;DHT22;7593;49.006;8.372;2023-03-03T01:23:26;2.20;99.90
14995;DHT22;7593;49.006;8.372;2023-03-03T01:25:54;2.20;99.90
14995;DHT22;7593;49.006;8.372;2023-03-03T01:28:21;2.20;99.90
14995;DHT22;7593;49.006;8.372;2023-03-03T01:30:48;2.10;99.90
14995;DHT22;7593;49.006;8.372;2023-03-03T01:33:15;2.20;99.90
14995;DHT22;7593;49.006;8.372;2023-03-03T01:35:43;2.10;99.90
14995;DHT22;7593;49.006;8.372;2023-03-03T01:38:10;2.10;99.90
14995;DHT22;7593;49.006;8.372;2023-03-03T01:40:36;2.10;99.90
14995;DHT22;7593;49.006;8.372;2023-03-03T01:43:05;2.00;99.90
14995;DHT22;7593;49.006;8.372;2023-03-03T01:45:43;2.10;99.90
14995;DHT22;7593;49.006;8.372;2023-03-03T01:48:15;2.00;99.90
14995;DHT22;7593;49.006;8.372;2023-03-03T01:50:48;2.00;99.90
14995;DHT22;7593;49.006;8.372;2023-03-03T01:53:18;2.00;99.90
14995;DHT22;7593;49.006;8.372;2023-03-03T01:55:46;1.90;99.90
14995;DHT22;7593;49.006;8.372;2023-03-03T01:58:17;1.90;99.90
14995;DHT22;7593;49.006;8.372;2023-03-03T02:00:52;1.90;99.90
14995;DHT22;7593;49.006;8.372;2023-03-03T02:03:20;1.80;99.90
14995;DHT22;7593;49.006;8.372;2023-03-03T02:05:48;1.90;99.90
14995;DHT22;7593;49.006;8.372;2023-03-03T02:08:19;1.80;99.90
14995;DHT22;7593;49.006;8.372;2023-03-03T02:10:47;1.80;99.90
14995;DHT22;7593;49.006;8.372;2023-03-03T02:13:15;1.80;99.90
14995;DHT22;7593;49.006;8.372;2023-03-03T02:15:42;1.80;99.90
14995;DHT22;7593;49.006;8.372;2023-03-03T02:18:11;1.80;99.90
14995;DHT22;7593;49.006;8.372;2023-03-03T02:20:48;1.80;99.90
14995;DHT22;7593;49.006;8.372;2023-03-03T02:23:23;1.70;99.90
14995;DHT22;7593;49.006;8.372;2023-03-03T02:26:05;1.80;99.90
14995;DHT22;7593;49.006;8.372;2023-03-03T02:28:34;1.70;99.90
14995;DHT22;7593;49.006;8.372;2023-03-03T02:31:04;1.70;99.90
14995;DHT22;7593;49.006;8.372;2023-03-03T02:33:31;1.70;99.90
14995;DHT22;7593;49.006;8.372;2023-03-03T02:35:58;1.70;99.90
14995;DHT22;7593;49.006;8.372;2023-03-03T02:38:26;1.70;99.90
14995;DHT22;7593;49.006;8.372;2023-03-03T02:41:03;1.70;99.90
14995;DHT22;7593;49.006;8.372;2023-03-03T02:43:38;1.70;99.90
14995;DHT22;7593;49.006;8.372;2023-03-03T02:46:07;1.70;99.90
14995;DHT22;7593;49.006;8.372;2023-03-03T02:48:33;1.60;99.90
14995;DHT22;7593;49.006;8.372;2023-03-03T02:51:00;1.60;99.90
14995;DHT22;7593;49.006;8.372;2023-03-03T02:53:27;1.60;99.90
14995;DHT22;7593;49.006;8.372;2023-03-03T02:55:54;1.60;99.90
14995;DHT22;7593;49.006;8.372;2023-03-03T02:58:22;1.60;99.90
14995;DHT22;7593;49.006;8.372;2023-03-03T03:00:48;1.50;99.90
14995;DHT22;7593;49.006;8.372;2023-03-03T03:03:15;1.50;99.90
14995;DHT22;7593;49.006;8.372;2023-03-03T03:05:42;1.40;99.90
14995;DHT22;7593;49.006;8.372;2023-03-03T03:08:09;1.40;99.90
14995;DHT22;7593;49.006;8.372;2023-03-03T03:10:36;1.40;99.90
14995;DHT22;7593;49.006;8.372;2023-03-03T03:13:03;1.40;99.90
14995;DHT22;7593;49.006;8.372;2023-03-03T03:15:31;1.40;99.90
14995;DHT22;7593;49.006;8.372;2023-03-03T03:17:59;1.30;99.90
14995;DHT22;7593;49.006;8.372;2023-03-03T03:20:26;1.30;99.90
14995;DHT22;7593;49.006;8.372;2023-03-03T03:22:53;1.30;99.90
14995;DHT22;7593;49.006;8.372;2023-03-03T03:25:19;1.30;99.90
14995;DHT22;7593;49.006;8.372;2023-03-03T03:27:46;1.30;99.90
14995;DHT22;7593;49.006;8.372;2023-03-03T03:30:13;1.30;99.90
14995;DHT22;7593;49.006;8.372;2023-03-03T03:32:41;1.20;99.90
14995;DHT22;7593;49.006;8.372;2023-03-03T03:35:08;1.20;99.90
14995;DHT22;7593;49.006;8.372;2023-03-03T03:37:36;1.20;99.90
14995;DHT22;7593;49.006;8.372;2023-03-03T03:40:03;1.30;99.90
14995;DHT22;7593;49.006;8.372;2023-03-03T03:42:30;1.30;99.90
14995;DHT22;7593;49.006;8.372;2023-03-03T03:44:57;1.30;99.90
14995;DHT22;7593;49.006;8.372;2023-03-03T03:47:23;1.20;99.90
14995;DHT22;7593;49.006;8.372;2023-03-03T03:49:51;1.30;99.90
14995;DHT22;7593;49.006;8.372;2023-03-03T03:52:18;1.20;99.90
14995;DHT22;7593;49.006;8.372;2023-03-03T03:54:45;1.20;99.90
14995;DHT22;7593;49.006;8.372;2023-03-03T03:57:12;1.20;99.90
14995;DHT22;7593;49.006;8.372;2023-03-03T03:59:39;1.20;99.90
14995;DHT22;7593;49.006;8.372;2023-03-03T04:02:05;1.20;99.90
14995;DHT22;7593;49.006;8.372;2023-03-03T04:04:32;1.20;99.90
14995;DHT22;7593;49.006;8.372;2023-03-03T04:07:00;1.10;99.90
14995;DHT22;7593;49.006;8.372;2023-03-03T04:09:27;1.10;99.90
14995;DHT22;7593;49.006;8.372;2023-03-03T04:11:54;1.10;99.90
14995;DHT22;7593;49.006;8.372;2023-03-03T04:14:20;1.10;99.90
14995;DHT22;7593;49.006;8.372;2023-03-03T04:16:47;1.00;99.90
14995;DHT22;7593;49.006;8.372;2023-03-03T04:19:14;1.00;99.90
14995;DHT22;7593;49.006;8.372;2023-03-03T04:21:41;1.00;99.90
14995;DHT22;7593;49.006;8.372;2023-03-03T04:24:09;1.00;99.90
14995;DHT22;7593;49.006;8.372;2023-03-03T04:26:36;1.00;99.90
14995;DHT22;7593;49.006;8.372;2023-03-03T04:29:03;0.90;99.90
14995;DHT22;7593;49.006;8.372;2023-03-03T04:31:30;0.90;99.90
14995;DHT22;7593;49.006;8.372;2023-03-03T04:33:57;0.80;99.90
14995;DHT22;7593;49.006;8.372;2023-03-03T04:36:23;0.80;99.90
14995;DHT22;7593;49.006;8.372;2023-03-03T04:38:50;0.90;99.90
14995;DHT22;7593;49.006;8.372;2023-03-03T04:41:19;0.90;99.90
14995;DHT22;7593;49.006;8.372;2023-03-03T04:43:46;0.90;99.90
14995;DHT22;7593;49.006;8.372;2023-03-03T04:46:12;0.80;99.90
14995;DHT22;7593;49.006;8.372;2023-03-03T04:48:39;0.90;99.90
14995;DHT22;7593;49.006;8.372;2023-03-03T04:51:06;0.80;99.90
14995;DHT22;7593;49.006;8.372;2023-03-03T04:53:32;0.90;99.90
14995;DHT22;7593;49.006;8.372;2023-03-03T04:56:01;0.90;99.90
14995;DHT22;7593;49.006;8.372;2023-03-03T04:58:30;0.80;99.90
14995;DHT22;7593;49.006;8.372;2023-03-03T05:00:57;0.80;99.90
14995;DHT22;7593;49.006;8.372;2023-03-03T05:03:24;0.80;99.90
14995;DHT22;7593;49.006;8.372;2023-03-03T05:05:51;0.80;99.90
14995;DHT22;7593;49.006;8.372;2023-03-03T05:08:18;0.90;99.90
14995;DHT22;7593;49.006;8.372;2023-03-03T05:10:45;0.80;99.90
14995;DHT22;7593;49.006;8.372;2023-03-03T05:13:12;0.80;99.90
14995;DHT22;7593;49.006;8.372;2023-03-03T05:15:41;0.70;99.90
14995;DHT22;7593;49.006;8.372;2023-03-03T05:18:08;0.70;99.90
14995;DHT22;7593;49.006;8.372;2023-03-03T05:20:36;0.70;99.90
14995;DHT22;7593;49.006;8.372;2023-03-03T05:23:05;0.70;99.90
14995;DHT22;7593;49.006;8.372;2023-03-03T05:25:32;0.60;99.90
14995;DHT22;7593;49.006;8.372;2023-03-03T05:27:58;0.70;99.90
14995;DHT22;7593;49.006;8.372;2023-03-03T05:30:25;0.60;99.90
14995;DHT22;7593;49.006;8.372;2023-03-03T05:32:53;0.60;99.90
14995;DHT22;7593;49.006;8.372;2023-03-03T05:35:20;0.60;99.90
14995;DHT22;7593;49.006;8.372;2023-03-03T05:37:47;0.60;99.90
14995;DHT22;7593;49.006;8.372;2023-03-03T05:40:14;0.70;99.90
14995;DHT22;7593;49.006;8.372;2023-03-03T05:42:42;0.70;99.90
14995;DHT22;7593;49.006;8.372;2023-03-03T05:45:09;0.80;99.90
14995;DHT22;7593;49.006;8.372;2023-03-03T05:47:36;0.90;99.90
14995;DHT22;7593;49.006;8.372;2023-03-03T05:50:05;0.90;99.90
14995;DHT22;7593;49.006;8.372;2023-03-03T05:52:32;1.00;99.90
14995;DHT22;7593;49.006;8.372;2023-03-03T05:54:59;1.10;99.90
14995;DHT22;7593;49.006;8.372;2023-03-03T05:57:25;1.10;99.90
14995;DHT22;7593;49.006;8.372;2023-03-03T05:59:52;1.20;99.90
14995;DHT22;7593;49.006;8.372;2023-03-03T06:02:19;1.20;99.90
14995;DHT22;7593;49.006;8.372;2023-03-03T06:04:46;1.30;99.90
14995;DHT22;7593;49.006;8.372;2023-03-03T06:07:14;1.40;99.90
14995;DHT22;7593;49.006;8.372;2023-03-03T06:09:41;1.40;99.90
14995;DHT22;7593;49.006;8.372;2023-03-03T06:12:07;1.40;99.90
14995;DHT22;7593;49.006;8.372;2023-03-03T06:14:34;1.50;99.90
14995;DHT22;7593;49.006;8.372;2023-03-03T06:17:01;1.50;99.90
14995;DHT22;7593;49.006;8.372;2023-03-03T06:19:28;1.50;99.90
14995;DHT22;7593;49.006;8.372;2023-03-03T06:21:54;1.50;99.90
14995;DHT22;7593;49.006;8.372;2023-03-03T06:24:22;1.50;99.90
14995;DHT22;7593;49.006;8.372;2023-03-03T06:26:49;1.50;99.90
14995;DHT22;7593;49.006;8.372;2023-03-03T06:29:16;1.50;99.90
14995;DHT22;7593;49.006;8.372;2023-03-03T06:31:43;1.50;99.90
14995;DHT22;7593;49.006;8.372;2023-03-03T06:34:10;1.60;99.90
14995;DHT22;7593;49.006;8.372;2023-03-03T06:36:39;1.50;99.90
14995;DHT22;7593;49.006;8.372;2023-03-03T06:39:06;1.50;99.90
14995;DHT22;7593;49.006;8.372;2023-03-03T06:41:34;1.50;99.90
14995;DHT22;7593;49.006;8.372;2023-03-03T06:44:01;1.60;99.90
14995;DHT22;7593;49.006;8.372;2023-03-03T06:46:28;1.60;99.90
14995;DHT22;7593;49.006;8.372;2023-03-03T06:48:54;1.60;99.90
14995;DHT22;7593;49.006;8.372;2023-03-03T06:51:23;1.60;99.90
14995;DHT22;7593;49.006;8.372;2023-03-03T06:53:53;1.60;99.90
14995;DHT22;7593;49.006;8.372;2023-03-03T06:56:20;1.70;99.90
14995;DHT22;7593;49.006;8.372;2023-03-03T06:58:50;1.70;99.90
14995;DHT22;7593;49.006;8.372;2023-03-03T07:01:19;1.70;99.90
14995;DHT22;7593;49.006;8.372;2023-03-03T07:03:45;1.80;99.90
14995;DHT22;7593;49.006;8.372;2023-03-03T07:06:21;1.80;99.90
14995;DHT22;7593;49.006;8.372;2023-03-03T07:08:48;1.90;99.90
14995;DHT22;7593;49.006;8.372;2023-03-03T07:11:18;1.90;99.90
14995;DHT22;7593;49.006;8.372;2023-03-03T07:13:56;1.90;99.90
14995;DHT22;7593;49.006;8.372;2023-03-03T07:16:25;1.90;99.90
14995;DHT22;7593;49.006;8.372;2023-03-03T07:18:54;1.90;99.90
14995;DHT22;7593;49.006;8.372;2023-03-03T07:21:22;1.90;99.90
14995;DHT22;7593;49.006;8.372;2023-03-03T07:23:59;2.00;99.90
14995;DHT22;7593;49.006;8.372;2023-03-03T07:26:29;1.90;99.90
14995;DHT22;7593;49.006;8.372;2023-03-03T07:29:00;2.00;99.90
14995;DHT22;7593;49.006;8.372;2023-03-03T07:31:33;2.00;99.90
14995;DHT22;7593;49.006;8.372;2023-03-03T07:34:03;2.10;99.90
14995;DHT22;7593;49.006;8.372;2023-03-03T07:36:40;2.10;99.90
14995;DHT22;7593;49.006;8.372;2023-03-03T07:39:29;2.20;99.90
14995;DHT22;7593;49.006;8.372;2023-03-03T07:42:02;2.20;99.90
14995;DHT22;7593;49.006;8.372;2023-03-03T07:44:36;2.30;99.90
14995;DHT22;7593;49.006;8.372;2023-03-03T07:47:14;2.40;99.90
14995;DHT22;7593;49.006;8.372;2023-03-03T07:49:43;2.50;99.90
14995;DHT22;7593;49.006;8.372;2023-03-03T07:52:24;2.50;99.90
14995;DHT22;7593;49.006;8.372;2023-03-03T07:54:52;2.60;99.90
14995;DHT22;7593;49.006;8.372;2023-03-03T07:57:22;2.60;99.90
14995;DHT22;7593;49.006;8.372;2023-03-03T07:59:53;2.70;99.90
14995;DHT22;7593;49.006;8.372;2023-03-03T08:02:37;2.70;99.90
14995;DHT22;7593;49.006;8.372;2023-03-03T08:05:32;2.70;99.90
14995;DHT22;7593;49.006;8.372;2023-03-03T08:08:20;2.70;99.90
14995;DHT22;7593;49.006;8.372;2023-03-03T08:10:54;2.70;99.90
14995;DHT22;7593;49.006;8.372;2023-03-03T08:13:23;2.70;99.90
14995;DHT22;7593;49.006;8.372;2023-03-03T08:15:53;2.70;99.90
14995;DHT22;7593;49.006;8.372;2023-03-03T08:18:24;2.70;99.90
14995;DHT22;7593;49.006;8.372;2023-03-03T08:20:57;2.80;99.90
14995;DHT22;7593;49.006;8.372;2023-03-03T08:23:25;2.80;99.90
14995;DHT22;7593;49.006;8.372;2023-03-03T08:25:52;2.90;99.90
14995;DHT22;7593;49.006;8.372;2023-03-03T08:28:20;2.90;99.90
14995;DHT22;7593;49.006;8.372;2023-03-03T08:30:48;3.00;99.90
14995;DHT22;7593;49.006;8.372;2023-03-03T08:33:16;3.20;99.90
14995;DHT22;7593;49.006;8.372;2023-03-03T08:35:44;3.50;99.90
14995;DHT22;7593;49.006;8.372;2023-03-03T08:38:12;3.80;99.90
14995;DHT22;7593;49.006;8.372;2023-03-03T08:40:40;4.20;99.90
14995;DHT22;7593;49.006;8.372;2023-03-03T08:43:07;4.40;99.90
14995;DHT22;7593;49.006;8.372;2023-03-03T08:45:34;4.60;99.90
14995;DHT22;7593;49.006;8.372;2023-03-03T08:48:01;4.80;99.90
14995;DHT22;7593;49.006;8.372;2023-03-03T08:50:30;5.30;99.90
14995;DHT22;7593;49.006;8.372;2023-03-03T08:52:56;5.70;99.90
14995;DHT22;7593;49.006;8.372;2023-03-03T08:55:23;6.20;99.90
14995;DHT22;7593;49.006;8.372;2023-03-03T08:57:50;6.50;99.90
14995;DHT22;7593;49.006;8.372;2023-03-03T09:00:19;6.90;99.90
14995;DHT22;7593;49.006;8.372;2023-03-03T09:02:46;7.30;99.90
14995;DHT22;7593;49.006;8.372;2023-03-03T09:05:14;7.60;99.90
14995;DHT22;7593;49.006;8.372;2023-03-03T09:07:44;8.00;99.90
14995;DHT22;7593;49.006;8.372;2023-03-03T09:10:13;8.30;99.90
14995;DHT22;7593;49.006;8.372;2023-03-03T09:12:41;8.40;99.90
14995;DHT22;7593;49.006;8.372;2023-03-03T09:15:19;8.60;99.90
14995;DHT22;7593;49.006;8.372;2023-03-03T09:17:46;8.80;99.90
14995;DHT22;7593;49.006;8.372;2023-03-03T09:20:23;9.10;99.90
14995;DHT22;7593;49.006;8.372;2023-03-03T09:22:54;9.20;99.90
14995;DHT22;7593;49.006;8.372;2023-03-03T09:25:24;9.30;99.90
14995;DHT22;7593;49.006;8.372;2023-03-03T09:27:53;9.50;99.90
14995;DHT22;7593;49.006;8.372;2023-03-03T09:30:36;9.70;99.90
14995;DHT22;7593;49.006;8.372;2023-03-03T09:33:22;9.70;99.90
14995;DHT22;7593;49.006;8.372;2023-03-03T09:35:51;9.90;99.90
14995;DHT22;7593;49.006;8.372;2023-03-03T09:38:25;10.00;99.90
14995;DHT22;7593;49.006;8.372;2023-03-03T09:41:23;10.20;99.90
14995;DHT22;7593;49.006;8.372;2023-03-03T09:44:07;10.30;99.90
14995;DHT22;7593;49.006;8.372;2023-03-03T09:46:39;10.40;99.90
14995;DHT22;7593;49.006;8.372;2023-03-03T09:49:21;10.50;99.90
14995;DHT22;7593;49.006;8.372;2023-03-03T09:52:02;10.60;99.90
14995;DHT22;7593;49.006;8.372;2023-03-03T09:54:42;10.70;99.90
14995;DHT22;7593;49.006;8.372;2023-03-03T09:57:15;10.80;99.90
14995;DHT22;7593;49.006;8.372;2023-03-03T09:59:59;10.80;99.90
14995;DHT22;7593;49.006;8.372;2023-03-03T10:02:36;10.90;99.90
14995;DHT22;7593;49.006;8.372;2023-03-03T10:05:27;10.90;99.90
14995;DHT22;7593;49.006;8.372;2023-03-03T10:08:02;11.00;99.90
14995;DHT22;7593;49.006;8.372;2023-03-03T10:10:54;11.10;99.90
14995;DHT22;7593;49.006;8.372;2023-03-03T10:13:35;11.00;99.90
14995;DHT22;7593;49.006;8.372;2023-03-03T10:16:15;10.50;99.90
14995;DHT22;7593;49.006;8.372;2023-03-03T10:18:50;9.90;99.90
14995;DHT22;7593;49.006;8.372;2023-03-03T10:21:24;9.50;99.90
14995;DHT22;7593;49.006;8.372;2023-03-03T10:23:55;9.40;99.90
14995;DHT22;7593;49.006;8.372;2023-03-03T10:26:45;9.40;99.90
14995;DHT22;7593;49.006;8.372;2023-03-03T10:29:23;9.40;99.90
14995;DHT22;7593;49.006;8.372;2023-03-03T10:32:00;9.30;99.90
14995;DHT22;7593;49.006;8.372;2023-03-03T10:34:49;9.40;99.90
14995;DHT22;7593;49.006;8.372;2023-03-03T10:37:26;9.70;99.90
14995;DHT22;7593;49.006;8.372;2023-03-03T10:40:07;10.10;99.90
14995;DHT22;7593;49.006;8.372;2023-03-03T10:42:54;10.50;99.90
14995;DHT22;7593;49.006;8.372;2023-03-03T10:45:59;11.00;99.90
14995;DHT22;7593;49.006;8.372;2023-03-03T10:48:45;11.50;99.90
14995;DHT22;7593;49.006;8.372;2023-03-03T10:51:21;11.90;99.90
14995;DHT22;7593;49.006;8.372;2023-03-03T10:54:02;12.00;99.90
14995;DHT22;7593;49.006;8.372;2023-03-03T10:56:39;12.20;99.90
14995;DHT22;7593;49.006;8.372;2023-03-03T10:59:24;12.40;99.80
14995;DHT22;7593;49.006;8.372;2023-03-03T11:01:58;12.70;99.50
14995;DHT22;7593;49.006;8.372;2023-03-03T11:04:39;12.70;99.20
14995;DHT22;7593;49.006;8.372;2023-03-03T11:07:12;12.80;98.90
14995;DHT22;7593;49.006;8.372;2023-03-03T11:09:55;12.70;99.10
14995;DHT22;7593;49.006;8.372;2023-03-03T11:12:38;12.80;98.60
14995;DHT22;7593;49.006;8.372;2023-03-03T11:15:36;13.00;98.50
14995;DHT22;7593;49.006;8.372;2023-03-03T11:18:16;13.30;97.70
14995;DHT22;7593;49.006;8.372;2023-03-03T11:20:54;13.50;97.50
14995;DHT22;7593;49.006;8.372;2023-03-03T11:26:32;13.20;97.20
14995;DHT22;7593;49.006;8.372;2023-03-03T11:29:26;13.30;97.50
14995;DHT22;7593;49.006;8.372;2023-03-03T11:32:02;13.20;97.50
14995;DHT22;7593;49.006;8.372;2023-03-03T11:34:47;13.30;97.20
14995;DHT22;7593;49.006;8.372;2023-03-03T11:37:21;13.60;97.10
14995;DHT22;7593;49.006;8.372;2023-03-03T11:39:49;13.90;96.60
14995;DHT22;7593;49.006;8.372;2023-03-03T11:42:24;13.70;96.50
14995;DHT22;7593;49.006;8.372;2023-03-03T11:44:54;13.70;96.60
14995;DHT22;7593;49.006;8.372;2023-03-03T11:47:28;13.80;96.20
14995;DHT22;7593;49.006;8.372;2023-03-03T11:49:59;13.80;96.10
14995;DHT22;7593;49.006;8.372;2023-03-03T11:52:33;13.80;96.00
14995;DHT22;7593;49.006;8.372;2023-03-03T11:55:04;14.00;95.90
14995;DHT22;7593;49.006;8.372;2023-03-03T11:57:38;14.40;95.60
14995;DHT22;7593;49.006;8.372;2023-03-03T12:00:19;14.60;95.60
14995;DHT22;7593;49.006;8.372;2023-03-03T12:03:13;14.80;94.80
14995;DHT22;7593;49.006;8.372;2023-03-03T12:05:54;15.00;94.90
14995;DHT22;7593;49.006;8.372;2023-03-03T12:08:40;15.10;94.40
14995;DHT22;7593;49.006;8.372;2023-03-03T12:11:15;15.30;94.20
14995;DHT22;7593;49.006;8.372;2023-03-03T12:13:55;15.20;94.30
14995;DHT22;7593;49.006;8.372;2023-03-03T12:16:32;15.00;94.30
14995;DHT22;7593;49.006;8.372;2023-03-03T12:19:15;14.70;94.70
14995;DHT22;7593;49.006;8.372;2023-03-03T12:22:06;14.50;94.50
14995;DHT22;7593;49.006;8.372;2023-03-03T12:24:45;14.50;94.70
14995;DHT22;7593;49.006;8.372;2023-03-03T12:27:23;14.70;94.50
14995;DHT22;7593;49.006;8.372;2023-03-03T12:30:01;15.20;94.20
14995;DHT22;7593;49.006;8.372;2023-03-03T12:32:40;15.40;94.00
14995;DHT22;7593;49.006;8.372;2023-03-03T12:35:19;15.50;94.00
14995;DHT22;7593;49.006;8.372;2023-03-03T12:37:53;15.60;93.80
14995;DHT22;7593;49.006;8.372;2023-03-03T12:40:24;15.70;93.60
14995;DHT22;7593;49.006;8.372;2023-03-03T12:43:01;15.50;93.60
14995;DHT22;7593;49.006;8.372;2023-03-03T12:45:37;15.50;93.80
14995;DHT22;7593;49.006;8.372;2023-03-03T12:48:14;15.90;93.30
14995;DHT22;7593;49.006;8.372;2023-03-03T12:50:50;16.30;93.10
14995;DHT22;7593;49.006;8.372;2023-03-03T12:53:29;16.30;92.70
14995;DHT22;7593;49.006;8.372;2023-03-03T12:56:02;16.50;92.50
14995;DHT22;7593;49.006;8.372;2023-03-03T12:58:37;16.60;92.70
14995;DHT22;7593;49.006;8.372;2023-03-03T13:01:14;16.60;92.40
14995;DHT22;7593;49.006;8.372;2023-03-03T13:03:54;16.80;92.10
14995;DHT22;7593;49.006;8.372;2023-03-03T13:06:28;16.60;92.30
14995;DHT22;7593;49.006;8.372;2023-03-03T13:09:06;16.10;92.50
14995;DHT22;7593;49.006;8.372;2023-03-03T13:11:49;16.40;92.40
14995;DHT22;7593;49.006;8.372;2023-03-03T13:14:25;16.60;92.10
14995;DHT22;7593;49.006;8.372;2023-03-03T13:17:02;16.50;92.20
14995;DHT22;7593;49.006;8.372;2023-03-03T13:19:33;16.40;92.10
14995;DHT22;7593;49.006;8.372;2023-03-03T13:22:09;16.70;92.00
14995;DHT22;7593;49.006;8.372;2023-03-03T13:24:45;17.00;91.70
14995;DHT22;7593;49.006;8.372;2023-03-03T13:27:17;17.10;91.70
14995;DHT22;7593;49.006;8.372;2023-03-03T13:29:53;17.30;91.80
14995;DHT22;7593;49.006;8.372;2023-03-03T13:32:23;17.60;91.30
14995;DHT22;7593;49.006;8.372;2023-03-03T13:34:57;17.60;91.20
14995;DHT22;7593;49.006;8.372;2023-03-03T13:37:31;17.30;91.20
14995;DHT22;7593;49.006;8.372;2023-03-03T13:40:02;17.30;91.10
14995;DHT22;7593;49.006;8.372;2023-03-03T13:42:37;17.20;91.00
14995;DHT22;7593;49.006;8.372;2023-03-03T13:45:13;17.30;91.00
14995;DHT22;7593;49.006;8.372;2023-03-03T13:47:47;17.50;90.90
14995;DHT22;7593;49.006;8.372;2023-03-03T13:50:21;17.50;90.90
14995;DHT22;7593;49.006;8.372;2023-03-03T13:53:02;17.40;90.80
14995;DHT22;7593;49.006;8.372;2023-03-03T13:55:35;17.50;90.90
14995;DHT22;7593;49.006;8.372;2023-03-03T13:58:12;17.70;90.80
14995;DHT22;7593;49.006;8.372;2023-03-03T14:00:50;17.80;90.60
14995;DHT22;7593;49.006;8.372;2023-03-03T14:03:32;17.70;90.40
14995;DHT22;7593;49.006;8.372;2023-03-03T14:06:09;17.80;90.40
14995;DHT22;7593;49.006;8.372;2023-03-03T14:08:50;17.80;90.20
14995;DHT22;7593;49.006;8.372;2023-03-03T14:11:24;17.80;90.20
14995;DHT22;7593;49.006;8.372;2023-03-03T14:13:58;17.20;90.00
14995;DHT22;7593;49.006;8.372;2023-03-03T14:16:38;17.40;90.10
14995;DHT22;7593;49.006;8.372;2023-03-03T14:19:14;17.80;90.00
14995;DHT22;7593;49.006;8.372;2023-03-03T14:21:47;18.10;89.40
14995;DHT22;7593;49.006;8.372;2023-03-03T14:24:18;18.40;88.60
14995;DHT22;7593;49.006;8.372;2023-03-03T14:26:47;18.40;88.30
14995;DHT22;7593;49.006;8.372;2023-03-03T14:29:20;18.40;87.90
14995;DHT22;7593;49.006;8.372;2023-03-03T14:31:47;18.40;88.10
14995;DHT22;7593;49.006;8.372;2023-03-03T14:34:29;18.40;87.90
14995;DHT22;7593;49.006;8.372;2023-03-03T14:37:20;18.40;87.70
14995;DHT22;7593;49.006;8.372;2023-03-03T14:39:59;18.30;88.00
14995;DHT22;7593;49.006;8.372;2023-03-03T14:42:32;18.40;87.80
14995;DHT22;7593;49.006;8.372;2023-03-03T14:45:04;18.50;87.40
14995;DHT22;7593;49.006;8.372;2023-03-03T14:47:44;18.50;87.80
14995;DHT22;7593;49.006;8.372;2023-03-03T14:50:33;18.00;88.20
14995;DHT22;7593;49.006;8.372;2023-03-03T14:53:13;17.90;87.80
14995;DHT22;7593;49.006;8.372;2023-03-03T14:55:44;17.70;87.90
14995;DHT22;7593;49.006;8.372;2023-03-03T14:58:26;17.70;88.50
14995;DHT22;7593;49.006;8.372;2023-03-03T15:01:22;17.50;88.60
14995;DHT22;7593;49.006;8.372;2023-03-03T15:03:57;17.50;88.40
14995;DHT22;7593;49.006;8.372;2023-03-03T15:06:34;17.30;88.50
14995;DHT22;7593;49.006;8.372;2023-03-03T15:09:25;17.20;88.70
14995;DHT22;7593;49.006;8.372;2023-03-03T15:11:56;17.30;88.70
14995;DHT22;7593;49.006;8.372;2023-03-03T15:14:29;17.10;88.60
14995;DHT22;7593;49.006;8.372;2023-03-03T15:17:19;16.80;89.00
14995;DHT22;7593;49.006;8.372;2023-03-03T15:20:02;16.80;88.80
14995;DHT22;7593;49.006;8.372;2023-03-03T15:22:44;16.80;89.00
14995;DHT22;7593;49.006;8.372;2023-03-03T15:25:17;16.80;89.40
14995;DHT22;7593;49.006;8.372;2023-03-03T15:27:51;16.70;89.60
14995;DHT22;7593;49.006;8.372;2023-03-03T15:30:25;16.60;89.90
14995;DHT22;7593;49.006;8.372;2023-03-03T15:32:59;16.60;90.00
14995;DHT22;7593;49.006;8.372;2023-03-03T15:35:40;16.30;90.20
14995;DHT22;7593;49.006;8.372;2023-03-03T15:38:17;16.30;90.10
14995;DHT22;7593;49.006;8.372;2023-03-03T15:40:53;16.10;90.30
14995;DHT22;7593;49.006;8.372;2023-03-03T15:43:27;16.00;90.40
14995;DHT22;7593;49.006;8.372;2023-03-03T15:46:05;15.80;90.70
14995;DHT22;7593;49.006;8.372;2023-03-03T15:48:50;15.70;90.70
14995;DHT22;7593;49.006;8.372;2023-03-03T15:51:28;15.60;90.80
14995;DHT22;7593;49.006;8.372;2023-03-03T15:54:13;15.40;91.10
14995;DHT22;7593;49.006;8.372;2023-03-03T15:56:47;15.20;91.40
14995;DHT22;7593;49.006;8.372;2023-03-03T15:59:54;14.90;91.80
14995;DHT22;7593;49.006;8.372;2023-03-03T16:02:24;14.50;92.00
14995;DHT22;7593;49.006;8.372;2023-03-03T16:04:57;14.20;92.40
14995;DHT22;7593;49.006;8.372;2023-03-03T16:07:33;14.10;92.70
14995;DHT22;7593;49.006;8.372;2023-03-03T16:10:11;13.80;92.80
14995;DHT22;7593;49.006;8.372;2023-03-03T16:12:49;13.50;93.30
14995;DHT22;7593;49.006;8.372;2023-03-03T16:15:44;13.40;93.50
14995;DHT22;7593;49.006;8.372;2023-03-03T16:18:22;13.20;93.90
14995;DHT22;7593;49.006;8.372;2023-03-03T16:21:02;13.00;93.90
14995;DHT22;7593;49.006;8.372;2023-03-03T16:23:38;12.90;94.30
14995;DHT22;7593;49.006;8.372;2023-03-03T16:26:34;12.60;94.60
14995;DHT22;7593;49.006;8.372;2023-03-03T16:29:19;12.40;94.90
14995;DHT22;7593;49.006;8.372;2023-03-03T16:31:52;12.20;95.10
14995;DHT22;7593;49.006;8.372;2023-03-03T16:34:25;11.90;95.50